Time;durP1;ratioP1;P1;durP2;ratioP2;P2;SDS_P1;SDS_P2;PMS_P1;PMS_P2;Temp;Humidity;BMP_temperature;BMP_pressure;BME280_temperature;BME280_humidity;BME280_pressure;Samples;Min_cycle;Max_cycle;Signal;HPM_P1;HPM_P2
2023/09/10 00:04:07;;;;;;;3.22;1.13;;;;;;;;;;5050934;22;20086;-60
2023/09/10 00:06:33;;;;;;;2.40;1.23;;;;;;;;;;5024920;28;20049;-60
2023/09/10 00:08:58;;;;;;;2.53;1.30;;;;;;;;;;5028130;22;20682;-61
2023/09/10 00:11:23;;;;;;;2.38;1.27;;;;;;;;;;5041164;28;20871;-62
2023/09/10 00:13:48;;;;;;;2.75;1.60;;;;;;;;;;5044552;28;20033;-62
2023/09/10 00:16:14;;;;;;;2.23;1.20;;;;;;;;;;5042788;28;20112;-62
2023/09/10 00:18:39;;;;;;;2.50;1.23;;;;;;;;;;5025734;28;20103;-63
2023/09/10 00:21:04;;;;;;;2.40;1.37;;;;;;;;;;5026091;28;20295;-62
2023/09/10 00:23:29;;;;;;;2.20;1.20;;;;;;;;;;5039696;22;20042;-60
2023/09/10 00:25:55;;;;;;;2.67;1.30;;;;;;;;;;5004990;28;20042;-62
2023/09/10 00:28:20;;;;;;;2.63;1.20;;;;;;;;;;5002262;28;20789;-61
2023/09/10 00:30:51;;;;;;;3.37;1.40;;;;;;;;;;4986252;28;20415;-61
2023/09/10 00:33:17;;;;;;;2.72;1.33;;;;;;;;;;4987755;28;20042;-60
2023/09/10 00:35:43;;;;;;;2.63;1.48;;;;;;;;;;5005033;28;20045;-60
2023/09/10 00:38:08;;;;;;;2.20;1.40;;;;;;;;;;4989017;28;20033;-60
2023/09/10 00:40:33;;;;;;;2.50;1.30;;;;;;;;;;4993541;28;20297;-59
2023/09/10 00:42:58;;;;;;;2.22;1.27;;;;;;;;;;4986434;28;20729;-59
2023/09/10 00:45:24;;;;;;;2.47;1.37;;;;;;;;;;4998006;28;20125;-60
2023/09/10 00:47:49;;;;;;;3.47;1.35;;;;;;;;;;4987218;28;20571;-59
2023/09/10 00:50:14;;;;;;;2.40;1.30;;;;;;;;;;4987023;28;20438;-60
2023/09/10 00:52:45;;;;;;;2.40;1.23;;;;;;;;;;4985177;28;20042;-60
2023/09/10 00:55:10;;;;;;;3.05;1.48;;;;;;;;;;5017718;28;20065;-60
2023/09/10 00:57:35;;;;;;;2.47;1.67;;;;;;;;;;4985035;28;20077;-60
2023/09/10 01:00:00;;;;;;;2.53;1.40;;;;;;;;;;4986664;28;20077;-59
2023/09/10 01:02:26;;;;;;;1.83;1.37;;;;;;;;;;4985292;28;20054;-59
2023/09/10 01:04:51;;;;;;;2.17;1.30;;;;;;;;;;4981786;28;20034;-60
2023/09/10 01:07:16;;;;;;;1.87;1.27;;;;;;;;;;5006393;28;20034;-59
2023/09/10 01:09:42;;;;;;;4.50;1.55;;;;;;;;;;5011371;28;20280;-59
2023/09/10 01:12:26;;;;;;;2.30;1.30;;;;;;;;;;5024378;28;20256;-59
2023/09/10 01:15:10;;;;;;;2.67;1.60;;;;;;;;;;5007459;28;20751;-59
2023/09/10 01:17:55;;;;;;;2.60;1.38;;;;;;;;;;4985465;28;20043;-60
2023/09/10 01:20:29;;;;;;;2.83;1.42;;;;;;;;;;4984260;28;20054;-60
2023/09/10 01:23:24;;;;;;;2.60;1.55;;;;;;;;;;4999130;28;20066;-60
2023/09/10 01:25:49;;;;;;;2.55;1.27;;;;;;;;;;4986487;28;20477;-58
2023/09/10 01:28:14;;;;;;;2.38;1.40;;;;;;;;;;5005958;28;20030;-59
2023/09/10 01:30:40;;;;;;;3.08;1.48;;;;;;;;;;5004556;28;20037;-60
2023/09/10 01:33:06;;;;;;;2.08;1.27;;;;;;;;;;5003933;28;20026;-60
2023/09/10 01:35:36;;;;;;;2.92;1.50;;;;;;;;;;5000536;28;20030;-59
2023/09/10 01:38:02;;;;;;;2.45;1.33;;;;;;;;;;5004467;28;20029;-59
2023/09/10 01:40:33;;;;;;;2.20;1.40;;;;;;;;;;5004073;28;20056;-59
2023/09/10 01:42:58;;;;;;;2.53;1.52;;;;;;;;;;4987597;28;20150;-60
2023/09/10 01:45:23;;;;;;;2.03;1.20;;;;;;;;;;5002533;28;20074;-59
2023/09/10 01:47:49;;;;;;;2.15;1.20;;;;;;;;;;5000697;28;20492;-59
2023/09/10 01:50:14;;;;;;;2.50;1.30;;;;;;;;;;4984470;28;20085;-59
2023/09/10 01:52:39;;;;;;;3.42;1.80;;;;;;;;;;4984406;28;20284;-58
2023/09/10 01:55:04;;;;;;;2.17;1.17;;;;;;;;;;4994982;28;20033;-59
2023/09/10 01:57:30;;;;;;;2.58;1.50;;;;;;;;;;5004179;28;20310;-59
2023/09/10 01:59:55;;;;;;;2.43;1.40;;;;;;;;;;4987493;28;20120;-59
2023/09/10 02:02:20;;;;;;;2.33;1.23;;;;;;;;;;4998672;28;20184;-60
2023/09/10 02:04:45;;;;;;;2.23;1.50;;;;;;;;;;5008049;28;20045;-60
2023/09/10 02:07:11;;;;;;;2.50;1.43;;;;;;;;;;5003923;28;20277;-59
2023/09/10 02:09:36;;;;;;;2.00;1.20;;;;;;;;;;4993451;28;20644;-59
2023/09/10 02:12:01;;;;;;;2.20;1.40;;;;;;;;;;5007109;28;20038;-60
2023/09/10 02:14:26;;;;;;;2.42;1.40;;;;;;;;;;4987968;28;20550;-59
2023/09/10 02:16:52;;;;;;;1.70;1.27;;;;;;;;;;5003774;28;20033;-59
2023/09/10 02:19:17;;;;;;;2.37;1.30;;;;;;;;;;5000506;28;20689;-60
2023/09/10 02:21:42;;;;;;;2.40;1.60;;;;;;;;;;4985610;28;20332;-59
2023/09/10 02:24:08;;;;;;;2.13;1.23;;;;;;;;;;4985154;28;20316;-60
2023/09/10 02:26:33;;;;;;;2.58;1.42;;;;;;;;;;5004965;28;20042;-59
2023/09/10 02:28:59;;;;;;;2.77;1.50;;;;;;;;;;5003589;28;20064;-58
2023/09/10 02:31:25;;;;;;;3.25;1.40;;;;;;;;;;4996612;28;20293;-59
2023/09/10 02:33:50;;;;;;;2.15;1.20;;;;;;;;;;5000440;28;20030;-59
2023/09/10 02:36:15;;;;;;;1.67;1.08;;;;;;;;;;5018069;28;20556;-59
2023/09/10 02:38:41;;;;;;;2.20;1.20;;;;;;;;;;5003919;28;20136;-60
2023/09/10 02:41:06;;;;;;;2.43;1.30;;;;;;;;;;5005185;28;20854;-58
2023/09/10 02:43:31;;;;;;;1.98;1.23;;;;;;;;;;4988960;28;20410;-59
2023/09/10 02:45:56;;;;;;;2.58;1.20;;;;;;;;;;5013979;28;20033;-61
2023/09/10 02:48:22;;;;;;;1.83;1.30;;;;;;;;;;4999641;28;20057;-61
2023/09/10 02:50:47;;;;;;;2.63;1.40;;;;;;;;;;4983890;28;20034;-59
2023/09/10 02:53:12;;;;;;;8.40;1.55;;;;;;;;;;4987159;28;20304;-59
2023/09/10 02:55:37;;;;;;;2.20;1.40;;;;;;;;;;5014293;28;20034;-61
2023/09/10 02:58:03;;;;;;;2.40;1.30;;;;;;;;;;5008450;28;20060;-58
2023/09/10 03:00:28;;;;;;;3.20;1.40;;;;;;;;;;5003323;28;20829;-59
2023/09/10 03:02:56;;;;;;;2.70;1.40;;;;;;;;;;5003855;28;20031;-59
2023/09/10 03:05:22;;;;;;;2.50;1.35;;;;;;;;;;4994778;28;20034;-60
2023/09/10 03:07:50;;;;;;;1.98;1.30;;;;;;;;;;5006697;28;20144;-59
2023/09/10 03:10:16;;;;;;;1.83;1.23;;;;;;;;;;5004467;28;20385;-59
2023/09/10 03:12:41;;;;;;;2.10;1.20;;;;;;;;;;4973662;28;20038;-60
2023/09/10 03:15:06;;;;;;;1.90;1.10;;;;;;;;;;4992060;28;20049;-59
2023/09/10 03:17:31;;;;;;;2.28;1.00;;;;;;;;;;4995311;28;20042;-60
2023/09/10 03:19:57;;;;;;;3.27;1.60;;;;;;;;;;4986436;28;20034;-59
2023/09/10 03:22:22;;;;;;;1.98;1.40;;;;;;;;;;4988783;28;20277;-59
2023/09/10 03:24:47;;;;;;;1.93;1.13;;;;;;;;;;4988193;28;20494;-60
2023/09/10 03:27:12;;;;;;;2.25;1.60;;;;;;;;;;5000288;28;20380;-59
2023/09/10 03:29:38;;;;;;;2.23;1.40;;;;;;;;;;4995850;28;20030;-59
2023/09/10 03:32:03;;;;;;;2.40;1.30;;;;;;;;;;5003355;28;20058;-59
2023/09/10 03:34:29;;;;;;;2.50;1.40;;;;;;;;;;4986563;28;20328;-60
2023/09/10 03:36:54;;;;;;;2.33;1.30;;;;;;;;;;5021026;28;20495;-59
2023/09/10 03:39:20;;;;;;;1.80;1.27;;;;;;;;;;4987907;28;20049;-59
2023/09/10 03:41:45;;;;;;;2.58;1.50;;;;;;;;;;4971323;28;20373;-59
2023/09/10 03:44:10;;;;;;;3.67;1.40;;;;;;;;;;5003068;28;20042;-59
2023/09/10 03:46:35;;;;;;;1.93;1.23;;;;;;;;;;5001018;28;20129;-60
2023/09/10 03:49:01;;;;;;;2.50;1.27;;;;;;;;;;4989582;28;20061;-59
2023/09/10 03:51:26;;;;;;;3.47;1.40;;;;;;;;;;5007075;28;20851;-59
2023/09/10 03:53:52;;;;;;;2.58;1.40;;;;;;;;;;5007461;28;20466;-59
2023/09/10 03:56:17;;;;;;;2.17;1.30;;;;;;;;;;5006389;28;20417;-59
2023/09/10 03:58:42;;;;;;;2.57;1.27;;;;;;;;;;5002083;28;20300;-59
2023/09/10 04:01:07;;;;;;;2.03;1.10;;;;;;;;;;4988567;28;20054;-60
2023/09/10 04:03:32;;;;;;;2.07;1.13;;;;;;;;;;4984755;28;20290;-59
2023/09/10 04:05:58;;;;;;;2.20;1.20;;;;;;;;;;4994217;28;20112;-59
2023/09/10 04:08:23;;;;;;;2.10;1.20;;;;;;;;;;5004323;28;20588;-59
2023/09/10 04:10:48;;;;;;;2.33;1.23;;;;;;;;;;4995483;28;20057;-61
2023/09/10 04:13:13;;;;;;;2.57;1.30;;;;;;;;;;5006960;28;20683;-60
2023/09/10 04:15:39;;;;;;;1.80;1.10;;;;;;;;;;5003972;28;20316;-59
2023/09/10 04:18:04;;;;;;;3.03;1.50;;;;;;;;;;4996603;28;20030;-59
2023/09/10 04:20:29;;;;;;;2.05;1.25;;;;;;;;;;4985739;28;20195;-59
2023/09/10 04:22:54;;;;;;;2.00;1.20;;;;;;;;;;4997920;28;20045;-61
2023/09/10 04:25:20;;;;;;;2.10;1.40;;;;;;;;;;5006414;28;20842;-61
2023/09/10 04:27:45;;;;;;;2.30;1.30;;;;;;;;;;4988699;28;20280;-61
2023/09/10 04:30:10;;;;;;;2.37;1.40;;;;;;;;;;5005076;28;20269;-60
2023/09/10 04:32:35;;;;;;;2.15;1.40;;;;;;;;;;4988494;28;20312;-61
2023/09/10 04:35:02;;;;;;;2.37;1.23;;;;;;;;;;4989309;28;20507;-59
2023/09/10 04:37:27;;;;;;;3.60;1.30;;;;;;;;;;5002582;28;20379;-59
2023/09/10 04:39:52;;;;;;;2.27;1.30;;;;;;;;;;5005046;28;20057;-60
2023/09/10 04:42:18;;;;;;;2.03;1.30;;;;;;;;;;5004701;28;20732;-60
2023/09/10 04:44:43;;;;;;;2.17;1.30;;;;;;;;;;5001195;28;20147;-59
2023/09/10 04:47:09;;;;;;;2.70;1.25;;;;;;;;;;4999687;28;20280;-60
2023/09/10 04:49:34;;;;;;;2.83;1.40;;;;;;;;;;5006676;28;20037;-59
2023/09/10 04:51:59;;;;;;;2.57;1.20;;;;;;;;;;4990261;28;20564;-60
2023/09/10 04:54:25;;;;;;;1.80;1.27;;;;;;;;;;4988185;28;20406;-60
2023/09/10 04:56:53;;;;;;;2.38;1.40;;;;;;;;;;5004287;28;20371;-62
2023/09/10 04:59:19;;;;;;;2.25;1.20;;;;;;;;;;4988717;28;20447;-60
2023/09/10 05:01:45;;;;;;;1.98;1.20;;;;;;;;;;4998815;28;20494;-60
2023/09/10 05:04:10;;;;;;;2.27;1.30;;;;;;;;;;4986253;28;20026;-60
2023/09/10 05:06:35;;;;;;;5.23;1.47;;;;;;;;;;4993217;28;20761;-60
2023/09/10 05:09:01;;;;;;;2.17;1.17;;;;;;;;;;5005293;28;20500;-59
2023/09/10 05:11:26;;;;;;;1.87;1.20;;;;;;;;;;5024039;28;20037;-59
2023/09/10 05:13:51;;;;;;;2.77;1.47;;;;;;;;;;5006088;28;20375;-60
2023/09/10 05:16:16;;;;;;;2.50;1.30;;;;;;;;;;5002967;28;20750;-59
2023/09/10 05:18:42;;;;;;;6.43;2.08;;;;;;;;;;5004161;28;20707;-59
2023/09/10 05:21:07;;;;;;;4.68;2.13;;;;;;;;;;4983963;28;20046;-60
2023/09/10 05:23:34;;;;;;;3.03;1.70;;;;;;;;;;4996605;28;20475;-60
2023/09/10 05:26:02;;;;;;;6.10;2.13;;;;;;;;;;5002571;28;20041;-60
2023/09/10 05:28:28;;;;;;;4.30;1.70;;;;;;;;;;5001464;28;20044;-60
2023/09/10 05:30:54;;;;;;;3.97;1.70;;;;;;;;;;5001758;28;20065;-60
2023/09/10 05:33:19;;;;;;;4.60;1.77;;;;;;;;;;5009365;28;20573;-60
2023/09/10 05:35:53;;;;;;;4.03;1.50;;;;;;;;;;5001916;28;20343;-61
2023/09/10 05:38:18;;;;;;;2.42;1.30;;;;;;;;;;5001486;28;20062;-61
2023/09/10 05:40:43;;;;;;;3.97;1.67;;;;;;;;;;5001481;28;20522;-60
2023/09/10 05:43:08;;;;;;;3.53;1.63;;;;;;;;;;5000177;28;20506;-60
2023/09/10 05:45:34;;;;;;;3.27;1.80;;;;;;;;;;4983985;28;20468;-60
2023/09/10 05:47:59;;;;;;;3.47;1.52;;;;;;;;;;4996539;28;20454;-59
2023/09/10 05:50:24;;;;;;;3.33;1.67;;;;;;;;;;4984388;28;20057;-60
2023/09/10 05:52:50;;;;;;;2.72;1.50;;;;;;;;;;4989089;28;20285;-60
2023/09/10 05:55:16;;;;;;;5.50;1.52;;;;;;;;;;5004276;28;20398;-60
2023/09/10 05:57:41;;;;;;;5.30;1.80;;;;;;;;;;5003676;28;20042;-60
2023/09/10 06:00:06;;;;;;;3.63;2.00;;;;;;;;;;4999829;28;20149;-60
2023/09/10 06:02:32;;;;;;;2.97;1.75;;;;;;;;;;5016308;28;20593;-59
2023/09/10 06:04:57;;;;;;;2.57;1.37;;;;;;;;;;5003388;28;20046;-60
2023/09/10 06:07:22;;;;;;;2.43;1.50;;;;;;;;;;5004969;28;20276;-60
2023/09/10 06:09:47;;;;;;;3.47;1.53;;;;;;;;;;4994607;28;20353;-60
2023/09/10 06:12:13;;;;;;;2.87;1.80;;;;;;;;;;4994821;28;20286;-59
2023/09/10 06:14:38;;;;;;;2.97;1.67;;;;;;;;;;5018294;28;20276;-61
2023/09/10 06:17:03;;;;;;;2.90;1.50;;;;;;;;;;5003504;28;20041;-60
2023/09/10 06:19:28;;;;;;;2.35;1.30;;;;;;;;;;5004981;28;20046;-60
2023/09/10 06:21:54;;;;;;;2.80;1.70;;;;;;;;;;5003571;28;20033;-61
2023/09/10 06:24:19;;;;;;;2.15;1.38;;;;;;;;;;5004672;28;20299;-60
2023/09/10 06:26:44;;;;;;;2.20;1.33;;;;;;;;;;5005005;28;20495;-59
2023/09/10 06:29:11;;;;;;;2.57;1.60;;;;;;;;;;5000590;28;20502;-59
2023/09/10 06:31:36;;;;;;;2.42;1.77;;;;;;;;;;5003814;28;20286;-60
2023/09/10 06:34:02;;;;;;;3.17;1.50;;;;;;;;;;4998950;28;20038;-60
2023/09/10 06:36:27;;;;;;;3.10;1.57;;;;;;;;;;5007251;28;20094;-60
2023/09/10 06:38:52;;;;;;;3.30;1.70;;;;;;;;;;4990546;28;20785;-58
2023/09/10 06:41:17;;;;;;;2.87;1.60;;;;;;;;;;4993494;28;20304;-59
2023/09/10 06:43:46;;;;;;;2.67;1.77;;;;;;;;;;4994820;28;20050;-60
2023/09/10 06:46:11;;;;;;;3.40;1.70;;;;;;;;;;4999642;28;20281;-59
2023/09/10 06:48:36;;;;;;;2.97;1.67;;;;;;;;;;5005365;28;20041;-60
2023/09/10 06:51:02;;;;;;;2.73;1.53;;;;;;;;;;5006802;28;20059;-60
2023/09/10 06:53:27;;;;;;;3.30;1.58;;;;;;;;;;5008486;28;20277;-60
2023/09/10 06:55:53;;;;;;;2.15;1.20;;;;;;;;;;5008472;28;20061;-60
2023/09/10 06:58:18;;;;;;;2.42;1.50;;;;;;;;;;5006202;28;20109;-60
2023/09/10 07:00:43;;;;;;;2.60;1.60;;;;;;;;;;4986672;28;20034;-60
2023/09/10 07:03:10;;;;;;;3.47;1.73;;;;;;;;;;4990412;28;20057;-60
2023/09/10 07:05:37;;;;;;;2.53;1.30;;;;;;;;;;4990657;28;20498;-60
2023/09/10 07:08:02;;;;;;;3.55;1.77;;;;;;;;;;5004293;28;20288;-60
2023/09/10 07:10:28;;;;;;;3.20;1.40;;;;;;;;;;5005381;28;20054;-61
2023/09/10 07:12:53;;;;;;;2.30;1.42;;;;;;;;;;4987413;28;20027;-59
2023/09/10 07:15:18;;;;;;;3.13;1.45;;;;;;;;;;4995800;28;20035;-59
2023/09/10 07:17:43;;;;;;;2.03;1.43;;;;;;;;;;4998985;28;20029;-60
2023/09/10 07:20:09;;;;;;;3.03;1.40;;;;;;;;;;4990300;28;20062;-60
2023/09/10 07:22:34;;;;;;;2.90;1.50;;;;;;;;;;4996799;28;20273;-61
2023/09/10 07:24:59;;;;;;;2.10;1.23;;;;;;;;;;5018536;28;20061;-59
2023/09/10 07:27:24;;;;;;;2.83;1.40;;;;;;;;;;5007711;28;20167;-59
2023/09/10 07:29:50;;;;;;;2.63;1.40;;;;;;;;;;5007484;28;20781;-61
2023/09/10 07:32:15;;;;;;;2.73;1.43;;;;;;;;;;5006246;28;20316;-61
2023/09/10 07:34:40;;;;;;;2.60;1.30;;;;;;;;;;4996196;28;20105;-61
2023/09/10 07:37:05;;;;;;;1.97;1.10;;;;;;;;;;5003920;28;20099;-60
2023/09/10 07:39:31;;;;;;;3.50;1.50;;;;;;;;;;5007066;28;20050;-59
2023/09/10 07:41:56;;;;;;;2.17;1.30;;;;;;;;;;5006080;28;20661;-60
2023/09/10 07:44:21;;;;;;;2.80;1.20;;;;;;;;;;4987774;28;20352;-59
2023/09/10 07:46:46;;;;;;;3.57;1.40;;;;;;;;;;4987711;28;20049;-59
2023/09/10 07:49:11;;;;;;;3.10;1.33;;;;;;;;;;5019778;28;20121;-59
2023/09/10 07:51:37;;;;;;;2.55;1.30;;;;;;;;;;4992586;28;20533;-60
2023/09/10 07:54:02;;;;;;;1.90;1.33;;;;;;;;;;4992649;28;20054;-60
2023/09/10 07:56:27;;;;;;;2.88;1.42;;;;;;;;;;5007047;28;20058;-58
2023/09/10 07:58:53;;;;;;;2.53;1.40;;;;;;;;;;5007063;28;20099;-59
2023/09/10 08:01:18;;;;;;;2.90;1.57;;;;;;;;;;5001577;28;20042;-59
2023/09/10 08:03:43;;;;;;;2.30;1.30;;;;;;;;;;4988440;28;20526;-59
2023/09/10 08:06:08;;;;;;;2.50;1.50;;;;;;;;;;5007000;28;20038;-59
2023/09/10 08:08:34;;;;;;;2.55;1.40;;;;;;;;;;5005459;28;20313;-58
2023/09/10 08:10:59;;;;;;;2.77;1.40;;;;;;;;;;5024039;28;20053;-59
2023/09/10 08:13:24;;;;;;;1.73;1.20;;;;;;;;;;5019268;28;20777;-59
2023/09/10 08:15:49;;;;;;;2.50;1.10;;;;;;;;;;5020182;28;20442;-59
2023/09/10 08:18:16;;;;;;;2.40;1.50;;;;;;;;;;5004811;28;20277;-58
2023/09/10 08:20:42;;;;;;;2.25;1.35;;;;;;;;;;5004733;28;20459;-58
2023/09/10 08:23:07;;;;;;;1.95;1.25;;;;;;;;;;5006576;28;20046;-60
2023/09/10 08:25:33;;;;;;;2.05;1.40;;;;;;;;;;5006503;28;20061;-58
2023/09/10 08:27:59;;;;;;;2.87;1.23;;;;;;;;;;5006803;28;20026;-59
2023/09/10 08:30:24;;;;;;;2.30;1.50;;;;;;;;;;5005147;28;20295;-58
2023/09/10 08:32:50;;;;;;;1.87;1.17;;;;;;;;;;4985110;28;20069;-58
2023/09/10 08:35:17;;;;;;;2.17;1.23;;;;;;;;;;4997013;28;20042;-60
2023/09/10 08:37:42;;;;;;;2.17;1.10;;;;;;;;;;5005281;28;20037;-59
2023/09/10 08:40:08;;;;;;;2.00;1.38;;;;;;;;;;5004168;28;20076;-60
2023/09/10 08:42:42;;;;;;;2.53;1.38;;;;;;;;;;5005154;28;20041;-59
2023/09/10 08:45:08;;;;;;;2.35;1.30;;;;;;;;;;5001349;28;20134;-60
2023/09/10 08:47:41;;;;;;;2.10;1.20;;;;;;;;;;4984943;28;20034;-59
2023/09/10 08:50:06;;;;;;;2.13;1.10;;;;;;;;;;5019508;28;20139;-59
2023/09/10 08:52:31;;;;;;;2.15;1.30;;;;;;;;;;5006471;28;20502;-58
2023/09/10 08:54:57;;;;;;;2.10;1.10;;;;;;;;;;5005490;28;20034;-58
2023/09/10 08:57:23;;;;;;;1.77;1.10;;;;;;;;;;4999482;28;20022;-59
2023/09/10 08:59:48;;;;;;;2.25;1.38;;;;;;;;;;5002467;28;20060;-58
2023/09/10 09:02:13;;;;;;;2.07;1.17;;;;;;;;;;5003494;28;20038;-60
2023/09/10 09:04:39;;;;;;;2.37;1.40;;;;;;;;;;4988151;28;20292;-58
2023/09/10 09:07:04;;;;;;;2.80;1.30;;;;;;;;;;5004333;28;20046;-58
2023/09/10 09:09:31;;;;;;;2.38;1.27;;;;;;;;;;4986666;28;20053;-58
2023/09/10 09:11:56;;;;;;;1.80;1.00;;;;;;;;;;4993313;28;20040;-59
2023/09/10 09:14:21;;;;;;;2.83;1.20;;;;;;;;;;5005787;28;20117;-59
2023/09/10 09:16:47;;;;;;;2.10;1.20;;;;;;;;;;4984744;28;20347;-60
2023/09/10 09:19:13;;;;;;;2.58;1.40;;;;;;;;;;4995798;28;20034;-61
2023/09/10 09:21:39;;;;;;;2.97;1.40;;;;;;;;;;4984325;28;20480;-60
2023/09/10 09:24:04;;;;;;;2.88;1.10;;;;;;;;;;4984454;28;20034;-60
2023/09/10 09:26:29;;;;;;;2.65;1.30;;;;;;;;;;5002611;28;20503;-60
2023/09/10 09:28:58;;;;;;;1.70;1.10;;;;;;;;;;5004018;28;20030;-61
2023/09/10 09:31:23;;;;;;;2.45;1.45;;;;;;;;;;5004935;28;20265;-61
2023/09/10 09:33:49;;;;;;;3.05;1.67;;;;;;;;;;5005597;28;20406;-60
2023/09/10 09:36:14;;;;;;;2.38;1.30;;;;;;;;;;5004559;28;20021;-60
2023/09/10 09:38:43;;;;;;;2.20;1.50;;;;;;;;;;4987986;28;20137;-60
2023/09/10 09:41:09;;;;;;;2.97;1.48;;;;;;;;;;4998659;28;20030;-60
2023/09/10 09:43:34;;;;;;;2.40;1.40;;;;;;;;;;5022376;28;20053;-59
2023/09/10 09:46:00;;;;;;;2.28;1.40;;;;;;;;;;4995550;28;20033;-60
2023/09/10 09:48:25;;;;;;;2.58;1.45;;;;;;;;;;4987527;28;20025;-61
2023/09/10 09:50:51;;;;;;;2.70;1.47;;;;;;;;;;5003563;28;20426;-60
2023/09/10 09:53:16;;;;;;;2.38;1.45;;;;;;;;;;5005249;28;20375;-60
2023/09/10 09:55:44;;;;;;;2.22;1.33;;;;;;;;;;5003908;28;20358;-60
2023/09/10 09:58:09;;;;;;;3.28;1.33;;;;;;;;;;4984256;28;20403;-60
2023/09/10 10:00:37;;;;;;;2.90;1.53;;;;;;;;;;5001580;28;20030;-59
2023/09/10 10:03:02;;;;;;;1.65;1.15;;;;;;;;;;4993141;28;20270;-60
2023/09/10 10:08:11;;;;;;;1.90;1.27;;;;;;;;;;5010394;28;20095;-60
2023/09/10 10:10:36;;;;;;;2.65;1.40;;;;;;;;;;5020144;28;20121;-59
2023/09/10 10:13:02;;;;;;;2.87;1.50;;;;;;;;;;4990554;28;20132;-57
2023/09/10 10:15:27;;;;;;;2.40;1.60;;;;;;;;;;4988435;28;20053;-58
2023/09/10 10:17:52;;;;;;;3.80;1.40;;;;;;;;;;4994189;28;20273;-60
2023/09/10 10:20:17;;;;;;;2.80;1.50;;;;;;;;;;5010993;28;20765;-59
2023/09/10 10:22:43;;;;;;;1.97;1.23;;;;;;;;;;5012009;28;20483;-60
2023/09/10 10:25:08;;;;;;;3.05;1.60;;;;;;;;;;5011427;28;20046;-58
2023/09/10 10:27:34;;;;;;;2.22;1.20;;;;;;;;;;5007105;28;20118;-59
2023/09/10 10:29:59;;;;;;;2.85;1.70;;;;;;;;;;5001829;28;20475;-59
2023/09/10 10:32:25;;;;;;;2.78;1.60;;;;;;;;;;5011572;28;20148;-58
2023/09/10 10:34:59;;;;;;;2.37;1.53;;;;;;;;;;5009887;28;20049;-61
2023/09/10 10:37:43;;;;;;;2.78;1.65;;;;;;;;;;5011896;28;20062;-59
2023/09/10 10:40:11;;;;;;;2.45;1.45;;;;;;;;;;5009721;28;20060;-59
2023/09/10 10:42:51;;;;;;;2.83;1.48;;;;;;;;;;5011782;28;20502;-60
2023/09/10 10:45:17;;;;;;;2.67;1.55;;;;;;;;;;5006807;28;20034;-59
2023/09/10 10:47:43;;;;;;;2.75;1.40;;;;;;;;;;4996672;28;20057;-59
2023/09/10 10:50:09;;;;;;;2.53;1.35;;;;;;;;;;5001762;28;20022;-58
2023/09/10 10:52:34;;;;;;;2.40;1.60;;;;;;;;;;4990724;28;20054;-59
2023/09/10 10:55:00;;;;;;;2.37;1.30;;;;;;;;;;5006951;28;20038;-58
2023/09/10 10:57:25;;;;;;;2.30;1.50;;;;;;;;;;5009692;28;20117;-59
2023/09/10 10:59:50;;;;;;;2.88;1.70;;;;;;;;;;5009601;28;20402;-60
2023/09/10 11:02:22;;;;;;;2.53;1.80;;;;;;;;;;5010765;28;20049;-60
2023/09/10 11:04:58;;;;;;;2.60;1.60;;;;;;;;;;5011389;28;20491;-59
2023/09/10 11:07:23;;;;;;;5.68;1.92;;;;;;;;;;5011219;28;20036;-59
2023/09/10 11:09:48;;;;;;;3.72;1.55;;;;;;;;;;5014519;28;20498;-58
2023/09/10 11:12:14;;;;;;;2.80;1.88;;;;;;;;;;5009893;28;20046;-58
2023/09/10 11:14:58;;;;;;;2.42;1.67;;;;;;;;;;5002022;28;20484;-59
2023/09/10 11:17:24;;;;;;;2.85;1.70;;;;;;;;;;5006646;28;20069;-61
2023/09/10 11:19:49;;;;;;;3.15;1.92;;;;;;;;;;5004585;28;20127;-60
2023/09/10 11:22:14;;;;;;;3.17;1.97;;;;;;;;;;4989414;28;20042;-61
2023/09/10 11:24:39;;;;;;;3.77;2.00;;;;;;;;;;5007836;28;20971;-59
2023/09/10 11:27:21;;;;;;;2.50;1.70;;;;;;;;;;5006510;28;20115;-58
2023/09/10 11:30:05;;;;;;;3.85;2.28;;;;;;;;;;5005913;28;20430;-59
2023/09/10 11:32:30;;;;;;;2.65;1.67;;;;;;;;;;4996399;28;20314;-59
2023/09/10 11:35:31;;;;;;;2.50;1.80;;;;;;;;;;4988684;28;20034;-60
2023/09/10 11:37:56;;;;;;;4.05;2.28;;;;;;;;;;4949216;28;20471;-58
2023/09/10 11:40:22;;;;;;;2.95;1.90;;;;;;;;;;4998258;28;20065;-58
2023/09/10 11:42:48;;;;;;;3.47;2.00;;;;;;;;;;5005081;28;20033;-59
2023/09/10 11:45:13;;;;;;;3.63;1.90;;;;;;;;;;5006427;28;20482;-59
2023/09/10 11:47:42;;;;;;;3.17;1.80;;;;;;;;;;5005949;28;20068;-59
2023/09/10 11:50:08;;;;;;;3.47;2.10;;;;;;;;;;4989293;28;20129;-59
2023/09/10 11:52:34;;;;;;;3.17;2.08;;;;;;;;;;4989837;28;20086;-58
2023/09/10 11:54:59;;;;;;;3.35;2.10;;;;;;;;;;5007739;28;20117;-59
2023/09/10 11:57:24;;;;;;;2.83;1.90;;;;;;;;;;5007430;28;20236;-58
2023/09/10 11:59:50;;;;;;;3.93;1.90;;;;;;;;;;5006148;28;20132;-58
2023/09/10 12:02:15;;;;;;;3.92;2.25;;;;;;;;;;5005760;28;20286;-59
2023/09/10 12:04:40;;;;;;;3.08;1.98;;;;;;;;;;5006044;28;20490;-60
2023/09/10 12:07:06;;;;;;;3.90;2.13;;;;;;;;;;5005276;28;20049;-59
2023/09/10 12:09:31;;;;;;;3.42;2.10;;;;;;;;;;5010698;28;20796;-59
2023/09/10 12:11:57;;;;;;;3.53;2.20;;;;;;;;;;5007356;28;20026;-59
2023/09/10 12:14:22;;;;;;;5.40;2.53;;;;;;;;;;5005045;28;20670;-58
2023/09/10 12:16:48;;;;;;;2.97;2.10;;;;;;;;;;4987926;28;20053;-59
2023/09/10 12:19:13;;;;;;;3.38;2.30;;;;;;;;;;5002340;28;20514;-59
2023/09/10 12:21:40;;;;;;;2.93;2.10;;;;;;;;;;5002773;28;20124;-58
2023/09/10 12:24:05;;;;;;;2.58;1.85;;;;;;;;;;5007205;28;20510;-60
2023/09/10 12:26:31;;;;;;;3.80;2.30;;;;;;;;;;5004322;28;20061;-59
2023/09/10 12:28:57;;;;;;;3.17;2.13;;;;;;;;;;4988142;28;20273;-58
2023/09/10 12:31:22;;;;;;;2.97;2.03;;;;;;;;;;5014318;28;20133;-58
2023/09/10 12:33:47;;;;;;;2.50;1.90;;;;;;;;;;4989106;28;20277;-59
2023/09/10 12:36:13;;;;;;;3.08;2.15;;;;;;;;;;5006613;28;20823;-59
2023/09/10 12:38:38;;;;;;;4.07;2.38;;;;;;;;;;4988957;28;20034;-59
2023/09/10 12:41:04;;;;;;;3.63;2.27;;;;;;;;;;4987619;28;20048;-59
2023/09/10 12:43:29;;;;;;;3.27;1.90;;;;;;;;;;4988572;28;20785;-59
2023/09/10 12:45:54;;;;;;;3.83;2.30;;;;;;;;;;5001218;28;20649;-59
2023/09/10 12:48:19;;;;;;;3.17;2.20;;;;;;;;;;5001207;28;20493;-58
2023/09/10 12:50:45;;;;;;;3.57;2.10;;;;;;;;;;5006698;28;20361;-58
2023/09/10 12:53:10;;;;;;;3.75;2.13;;;;;;;;;;5006347;28;20319;-59
2023/09/10 12:55:35;;;;;;;3.15;2.38;;;;;;;;;;5005353;28;20060;-59
2023/09/10 12:58:01;;;;;;;3.90;2.20;;;;;;;;;;5003451;28;20050;-60
2023/09/10 13:00:26;;;;;;;3.07;2.17;;;;;;;;;;4988638;28;20129;-59
2023/09/10 13:02:51;;;;;;;3.22;2.25;;;;;;;;;;5004625;28;20521;-58
2023/09/10 13:05:16;;;;;;;3.27;2.20;;;;;;;;;;5006219;28;20026;-58
2023/09/10 13:07:45;;;;;;;3.20;2.30;;;;;;;;;;5005002;28;20057;-59
2023/09/10 13:10:10;;;;;;;2.80;2.10;;;;;;;;;;4993648;28;20285;-59
2023/09/10 13:12:35;;;;;;;3.57;2.10;;;;;;;;;;5018805;28;20141;-61
2023/09/10 13:15:01;;;;;;;3.58;2.22;;;;;;;;;;4998723;28;20662;-59
2023/09/10 13:17:26;;;;;;;3.08;2.33;;;;;;;;;;4992184;28;20042;-59
2023/09/10 13:19:52;;;;;;;3.08;2.35;;;;;;;;;;5003002;28;20542;-60
2023/09/10 13:22:17;;;;;;;3.20;2.00;;;;;;;;;;5004016;28;20037;-58
2023/09/10 13:24:42;;;;;;;3.80;2.17;;;;;;;;;;5005656;28;20284;-58
2023/09/10 13:27:07;;;;;;;3.53;2.08;;;;;;;;;;5004385;28;20289;-59
2023/09/10 13:29:33;;;;;;;2.75;2.25;;;;;;;;;;4981336;28;20518;-59
2023/09/10 13:31:58;;;;;;;3.83;2.40;;;;;;;;;;4995829;28;20125;-58
2023/09/10 13:34:24;;;;;;;3.55;2.15;;;;;;;;;;4987160;28;20125;-59
2023/09/10 13:36:50;;;;;;;2.53;1.80;;;;;;;;;;5003797;28;20038;-58
2023/09/10 13:39:15;;;;;;;3.67;2.13;;;;;;;;;;5004004;28;20041;-59
2023/09/10 13:41:40;;;;;;;3.58;2.10;;;;;;;;;;5004008;28;20086;-59
2023/09/10 13:44:05;;;;;;;2.67;2.10;;;;;;;;;;5002688;28;20140;-58
2023/09/10 13:46:31;;;;;;;4.15;2.20;;;;;;;;;;5001926;28;20281;-60
2023/09/10 13:48:56;;;;;;;2.58;2.05;;;;;;;;;;5004138;28;20041;-59
2023/09/10 13:51:21;;;;;;;3.20;2.00;;;;;;;;;;5001084;28;20510;-59
2023/09/10 13:53:48;;;;;;;2.90;2.00;;;;;;;;;;5003616;28;20307;-58
2023/09/10 13:56:13;;;;;;;3.22;2.00;;;;;;;;;;5003188;28;20277;-57
2023/09/10 13:58:39;;;;;;;3.22;2.40;;;;;;;;;;5004302;28;20037;-58
2023/09/10 14:01:07;;;;;;;4.07;2.13;;;;;;;;;;5000856;28;20056;-58
2023/09/10 14:03:35;;;;;;;3.33;1.90;;;;;;;;;;4994835;28;20073;-59
2023/09/10 14:06:00;;;;;;;3.17;2.05;;;;;;;;;;4985068;28;20031;-58
2023/09/10 14:08:25;;;;;;;3.77;2.27;;;;;;;;;;4994200;28;20037;-60
2023/09/10 14:10:50;;;;;;;3.50;2.33;;;;;;;;;;5001474;28;20284;-58
2023/09/10 14:13:16;;;;;;;3.40;2.30;;;;;;;;;;5005479;28;20168;-60
2023/09/10 14:15:43;;;;;;;3.83;2.23;;;;;;;;;;5003190;28;20034;-58
2023/09/10 14:18:08;;;;;;;4.60;2.17;;;;;;;;;;5004790;28;20313;-58
2023/09/10 14:20:33;;;;;;;3.50;2.20;;;;;;;;;;5003028;28;20431;-58
2023/09/10 14:22:58;;;;;;;3.80;2.10;;;;;;;;;;5016926;23;20316;-66
2023/09/10 14:25:24;;;;;;;3.53;2.08;;;;;;;;;;5023141;28;20808;-63
2023/09/10 14:27:50;;;;;;;4.15;2.38;;;;;;;;;;5023341;28;20048;-64
2023/09/10 14:30:15;;;;;;;3.33;2.30;;;;;;;;;;5023558;28;20056;-61
2023/09/10 14:32:40;;;;;;;3.17;2.00;;;;;;;;;;5023425;28;20573;-62
2023/09/10 14:35:06;;;;;;;4.25;2.00;;;;;;;;;;5006892;28;20284;-63
2023/09/10 14:37:31;;;;;;;3.13;2.30;;;;;;;;;;5024266;28;20037;-62
2023/09/10 14:39:56;;;;;;;3.35;2.05;;;;;;;;;;5017187;28;20485;-62
2023/09/10 14:42:22;;;;;;;4.40;2.10;;;;;;;;;;5027580;22;20044;-62